createdAt,value
2023-02-15T00:01:38.566Z,8.00
2023-02-15T00:04:06.532Z,7.00
2023-02-15T00:06:34.521Z,8.50
2023-02-15T00:09:02.471Z,7.00
2023-02-15T00:11:43.717Z,7.50
2023-02-15T00:14:13.983Z,8.00
2023-02-15T00:16:42.278Z,7.75
2023-02-15T00:19:10.400Z,8.00
2023-02-15T00:21:38.915Z,8.00
2023-02-15T00:24:08.311Z,8.00
2023-02-15T00:26:36.214Z,9.00
2023-02-15T00:29:04.374Z,7.50
2023-02-15T00:31:34.182Z,8.00
2023-02-15T00:34:04.069Z,8.50
2023-02-15T00:36:32.000Z,7.25
2023-02-15T00:38:59.949Z,7.00
2023-02-15T00:41:28.113Z,7.00
2023-02-15T00:43:56.051Z,7.50
2023-02-15T00:46:23.988Z,7.25
2023-02-15T00:48:53.452Z,7.25
2023-02-15T00:51:22.356Z,8.00
2023-02-15T00:53:50.300Z,6.75
2023-02-15T00:56:18.258Z,8.00
2023-02-15T00:58:46.255Z,8.00
2023-02-15T01:01:14.895Z,7.75
2023-02-15T01:03:43.578Z,6.75
2023-02-15T01:06:12.970Z,8.00
2023-02-15T01:08:40.875Z,7.00
2023-02-15T01:11:09.239Z,7.25
2023-02-15T01:13:37.204Z,7.00
2023-02-15T01:16:05.958Z,7.00
2023-02-15T01:18:34.085Z,8.00
2023-02-15T01:21:02.060Z,7.25
2023-02-15T01:23:31.586Z,8.00
2023-02-15T01:26:04.107Z,7.50
2023-02-15T01:28:32.201Z,8.00
2023-02-15T01:31:00.535Z,7.00
2023-02-15T01:33:28.752Z,8.00
2023-02-15T01:35:59.495Z,7.00
2023-02-15T01:38:27.604Z,7.00
2023-02-15T01:41:18.168Z,7.00
2023-02-15T01:43:47.325Z,7.50
2023-02-15T01:46:15.490Z,7.00
2023-02-15T01:48:46.034Z,7.75
2023-02-15T01:51:14.002Z,7.50
2023-02-15T01:53:43.951Z,6.50
2023-02-15T01:56:14.927Z,6.00
2023-02-15T01:58:42.820Z,7.50
2023-02-15T02:01:10.781Z,8.00
2023-02-15T02:03:43.387Z,7.75
2023-02-15T02:06:11.739Z,7.00
2023-02-15T02:08:39.772Z,7.00
2023-02-15T02:11:14.069Z,7.00
2023-02-15T02:13:42.017Z,8.00
2023-02-15T02:16:12.406Z,7.25
2023-02-15T02:18:46.559Z,7.75
2023-02-15T02:21:33.195Z,5.50
2023-02-15T02:24:22.275Z,7.00
2023-02-15T02:27:26.317Z,9.00
2023-02-15T02:30:29.640Z,6.75
2023-02-15T02:33:16.537Z,6.00
2023-02-15T02:35:47.697Z,7.00
2023-02-15T02:38:19.603Z,8.00
2023-02-15T02:40:53.925Z,7.75
2023-02-15T02:43:23.370Z,7.00
2023-02-15T02:45:53.426Z,7.00
2023-02-15T02:48:24.017Z,6.25
2023-02-15T02:50:51.918Z,6.75
2023-02-15T02:53:20.195Z,7.00
2023-02-15T02:55:49.215Z,7.00
2023-02-15T02:58:19.041Z,6.00
2023-02-15T03:00:47.792Z,7.50
2023-02-15T03:03:16.769Z,8.00
2023-02-15T03:05:46.901Z,7.25
2023-02-15T03:08:22.650Z,7.00
2023-02-15T03:10:50.747Z,7.00
2023-02-15T03:13:19.124Z,8.00
2023-02-15T03:16:04.301Z,7.00
2023-02-15T03:18:33.267Z,7.00
2023-02-15T03:21:02.608Z,6.25
2023-02-15T03:23:30.767Z,6.00
2023-02-15T03:25:59.995Z,7.00
2023-02-15T03:28:29.726Z,7.00
2023-02-15T03:30:58.512Z,5.75
2023-02-15T03:33:26.764Z,6.50
2023-02-15T03:35:57.918Z,6.00
2023-02-15T03:38:29.046Z,7.00
2023-02-15T03:41:12.332Z,7.00
2023-02-15T03:43:44.112Z,6.00
2023-02-15T03:46:14.886Z,7.00
2023-02-15T03:48:44.589Z,7.00
2023-02-15T03:51:35.881Z,8.00
2023-02-15T03:54:06.828Z,7.00
2023-02-15T03:56:35.794Z,6.75
2023-02-15T03:59:22.353Z,6.50
2023-02-15T04:01:59.366Z,8.00
2023-02-15T04:04:37.421Z,6.00
2023-02-15T04:07:06.708Z,7.00
2023-02-15T04:09:53.712Z,7.00
2023-02-15T04:12:21.608Z,7.00
2023-02-15T04:15:08.620Z,7.00
2023-02-15T04:17:38.142Z,7.00
2023-02-15T04:20:24.769Z,6.75
2023-02-15T04:23:10.002Z,6.25
2023-02-15T04:25:39.406Z,7.00
2023-02-15T04:28:08.596Z,7.00
2023-02-15T04:30:36.619Z,7.00
2023-02-15T04:33:04.870Z,7.00
2023-02-15T04:35:34.464Z,8.00
2023-02-15T04:38:02.431Z,6.00
2023-02-15T04:40:30.333Z,7.50
2023-02-15T04:42:59.632Z,7.00
2023-02-15T04:45:28.140Z,8.00
2023-02-15T04:47:56.182Z,7.00
2023-02-15T04:50:24.191Z,6.50
2023-02-15T04:52:52.424Z,7.00
2023-02-15T04:55:20.327Z,7.00
2023-02-15T04:57:48.377Z,7.00
2023-02-15T05:00:18.359Z,7.50
2023-02-15T05:02:46.580Z,7.25
2023-02-15T05:05:16.164Z,7.00
2023-02-15T05:07:44.060Z,6.00
2023-02-15T05:10:12.036Z,7.00
2023-02-15T05:12:40.272Z,6.50
2023-02-15T05:15:10.750Z,6.00
2023-02-15T05:17:41.074Z,7.25
2023-02-15T05:20:09.587Z,7.00
2023-02-15T05:22:37.829Z,7.00
2023-02-15T05:25:23.527Z,6.00
2023-02-15T05:28:08.589Z,6.75
2023-02-15T05:30:37.005Z,7.00
2023-02-15T05:33:06.733Z,7.00
2023-02-15T05:35:34.728Z,8.50
2023-02-15T05:38:02.567Z,8.00
2023-02-15T05:40:30.462Z,7.00
2023-02-15T05:42:58.815Z,8.50
2023-02-15T05:45:26.873Z,7.75
2023-02-15T05:47:54.778Z,8.75
2023-02-15T05:50:24.077Z,9.00
2023-02-15T05:52:53.418Z,7.75
2023-02-15T05:55:21.321Z,7.00
2023-02-15T05:57:49.242Z,7.00
2023-02-15T06:00:17.874Z,8.00
2023-02-15T06:02:46.118Z,8.00
2023-02-15T06:05:14.124Z,8.25
2023-02-15T06:07:44.819Z,8.00
2023-02-15T06:10:12.782Z,7.00
2023-02-15T06:12:41.049Z,7.00
2023-02-15T06:15:12.182Z,8.00
2023-02-15T06:17:40.080Z,6.25
2023-02-15T06:20:09.339Z,7.00
2023-02-15T06:22:37.607Z,8.00
2023-02-15T06:25:10.849Z,8.00
2023-02-15T06:27:38.798Z,8.50
2023-02-15T06:30:14.339Z,8.00
2023-02-15T06:32:42.672Z,8.00
2023-02-15T06:35:10.646Z,8.00
2023-02-15T06:37:38.595Z,7.00
2023-02-15T06:40:09.511Z,7.75
2023-02-15T06:42:37.774Z,6.00
2023-02-15T06:45:08.606Z,7.50
2023-02-15T06:47:36.660Z,6.75
2023-02-15T06:50:05.053Z,8.00
2023-02-15T06:52:33.438Z,6.00
2023-02-15T06:55:01.351Z,7.00
2023-02-15T06:57:31.017Z,6.50
2023-02-15T06:59:59.408Z,7.00
2023-02-15T07:02:27.704Z,7.00
2023-02-15T07:04:55.726Z,7.25
2023-02-15T07:07:23.716Z,6.00
2023-02-15T07:09:51.678Z,8.00
2023-02-15T07:12:37.245Z,7.00
2023-02-15T07:15:10.116Z,6.75
2023-02-15T07:17:38.272Z,8.00
2023-02-15T07:20:08.752Z,6.00
2023-02-15T07:22:37.244Z,6.50
2023-02-15T07:25:05.333Z,6.50
2023-02-15T07:27:33.440Z,6.00
2023-02-15T07:30:01.418Z,7.25
2023-02-15T07:32:31.717Z,6.75
2023-02-15T07:34:59.714Z,6.00
2023-02-15T07:37:27.887Z,7.75
2023-02-15T07:39:55.774Z,6.00
2023-02-15T07:42:24.062Z,6.00
2023-02-15T07:44:53.686Z,7.00
2023-02-15T07:47:21.647Z,7.00
2023-02-15T07:49:52.214Z,7.00
2023-02-15T07:52:20.379Z,6.00
2023-02-15T07:54:48.338Z,7.00
2023-02-15T07:57:16.399Z,7.00
2023-02-15T07:59:44.636Z,6.50
2023-02-15T08:02:12.858Z,7.00
2023-02-15T08:04:41.103Z,5.00
2023-02-15T08:07:10.359Z,6.25
2023-02-15T08:09:38.263Z,7.00
2023-02-15T08:12:06.713Z,7.00
2023-02-15T08:14:34.845Z,6.25
2023-02-15T08:17:05.957Z,7.00
2023-02-15T08:19:35.457Z,5.00
2023-02-15T08:22:05.022Z,6.00
2023-02-15T08:24:35.326Z,6.25
2023-02-15T08:27:06.159Z,7.00
2023-02-15T08:29:34.640Z,6.00
2023-02-15T08:32:03.949Z,6.75
2023-02-15T08:34:32.437Z,6.00
2023-02-15T08:37:00.405Z,6.00
2023-02-15T08:39:28.445Z,6.00
2023-02-15T08:41:58.082Z,6.00
2023-02-15T08:44:26.146Z,7.25
2023-02-15T08:46:54.080Z,5.75
2023-02-15T08:49:22.926Z,5.00
2023-02-15T08:51:51.312Z,6.00
2023-02-15T08:54:20.224Z,6.75
2023-02-15T08:56:48.171Z,5.75
2023-02-15T08:59:18.137Z,6.00
2023-02-15T09:01:46.624Z,6.00
2023-02-15T09:04:16.560Z,7.00
2023-02-15T09:06:47.642Z,6.25
2023-02-15T09:09:16.218Z,5.25
2023-02-15T09:11:45.442Z,6.00
2023-02-15T09:14:15.427Z,6.00
2023-02-15T09:16:47.210Z,5.00
2023-02-15T09:19:15.253Z,6.00
2023-02-15T09:21:43.591Z,7.00
2023-02-15T09:24:12.545Z,5.75
2023-02-15T09:26:41.787Z,5.50
2023-02-15T09:29:09.950Z,6.00
2023-02-15T09:31:42.254Z,5.75
2023-02-15T09:34:11.636Z,6.00
2023-02-15T09:36:40.951Z,5.25
2023-02-15T09:39:10.372Z,6.00
2023-02-15T09:42:20.226Z,5.00
2023-02-15T09:45:39.460Z,5.00
2023-02-15T09:48:24.156Z,5.25
2023-02-15T09:50:59.731Z,6.00
2023-02-15T09:53:44.749Z,6.00
2023-02-15T09:56:17.209Z,4.75
2023-02-15T09:58:49.627Z,6.00
2023-02-15T10:01:21.054Z,6.00
2023-02-15T10:03:57.457Z,5.25
2023-02-15T10:06:45.346Z,5.00
2023-02-15T10:09:52.015Z,5.00
2023-02-15T10:12:31.187Z,5.00
2023-02-15T10:15:20.345Z,5.50
2023-02-15T10:17:57.464Z,5.50
2023-02-15T10:20:29.016Z,5.00
2023-02-15T10:23:15.852Z,6.00
2023-02-15T10:25:46.504Z,5.75
2023-02-15T10:28:18.639Z,6.00
2023-02-15T10:30:49.061Z,5.50
2023-02-15T10:33:25.838Z,5.00
2023-02-15T10:35:57.972Z,6.00
2023-02-15T10:38:30.340Z,6.00
2023-02-15T10:41:06.655Z,4.25
2023-02-15T10:43:45.176Z,5.00
2023-02-15T10:46:16.745Z,5.00
2023-02-15T10:48:57.724Z,6.00
2023-02-15T10:51:28.968Z,5.50
2023-02-15T10:54:07.452Z,5.00
2023-02-15T10:56:37.754Z,5.50
2023-02-15T10:59:21.205Z,5.00
2023-02-15T11:01:51.323Z,5.00
2023-02-15T11:04:53.614Z,5.00
2023-02-15T11:07:23.446Z,5.50
2023-02-15T11:09:54.418Z,4.75
2023-02-15T11:12:24.560Z,4.75
2023-02-15T11:14:55.223Z,5.25
2023-02-15T11:17:24.596Z,5.00
2023-02-15T11:19:58.144Z,5.25
2023-02-15T11:22:26.106Z,5.50
2023-02-15T11:24:55.760Z,5.75
2023-02-15T11:27:24.441Z,5.00
2023-02-15T11:29:59.627Z,5.00
2023-02-15T11:32:29.828Z,6.00
2023-02-15T11:35:00.570Z,5.00
2023-02-15T11:37:31.395Z,5.00
2023-02-15T11:40:01.673Z,4.75
2023-02-15T11:42:29.870Z,5.00
2023-02-15T11:45:00.925Z,5.00
2023-02-15T11:47:28.952Z,5.00
2023-02-15T11:49:56.843Z,6.00
2023-02-15T11:52:25.415Z,5.25
2023-02-15T11:54:53.539Z,5.00
2023-02-15T11:57:25.695Z,5.00
2023-02-15T11:59:55.124Z,5.00
2023-02-15T12:02:23.852Z,4.00
2023-02-15T12:04:56.626Z,5.00
2023-02-15T12:07:28.335Z,5.00
2023-02-15T12:10:01.511Z,5.00
2023-02-15T12:12:31.932Z,5.00
2023-02-15T12:15:00.401Z,4.75
2023-02-15T12:17:31.987Z,5.00
2023-02-15T12:20:00.271Z,4.00
2023-02-15T12:22:30.483Z,4.50
2023-02-15T12:24:59.512Z,5.50
2023-02-15T12:27:32.247Z,5.25
2023-02-15T12:30:03.277Z,5.00
2023-02-15T12:32:33.549Z,5.00
2023-02-15T12:35:02.903Z,5.00
2023-02-15T12:37:32.981Z,5.00
2023-02-15T12:40:04.567Z,4.50
2023-02-15T12:42:53.224Z,5.00
2023-02-15T12:45:28.703Z,5.00
2023-02-15T12:48:11.667Z,4.50
2023-02-15T12:50:40.925Z,5.00
2023-02-15T12:53:11.241Z,4.25
2023-02-15T12:55:45.690Z,4.75
2023-02-15T12:58:21.586Z,4.50
2023-02-15T13:00:49.749Z,5.00
2023-02-15T13:03:22.575Z,5.00
2023-02-15T13:05:51.686Z,5.00
2023-02-15T13:08:20.950Z,5.50
2023-02-15T13:10:55.716Z,5.00
2023-02-15T13:13:29.053Z,5.00
2023-02-15T13:15:58.495Z,5.00
2023-02-15T13:18:31.607Z,4.50
2023-02-15T13:21:02.072Z,5.00
2023-02-15T13:23:31.408Z,5.00
2023-02-15T13:26:00.881Z,4.75
2023-02-15T13:28:36.630Z,6.00
2023-02-15T13:31:04.985Z,5.00
2023-02-15T13:33:34.659Z,6.00
2023-02-15T13:36:08.712Z,4.50
2023-02-15T13:38:52.940Z,4.00
2023-02-15T13:41:22.424Z,5.75
2023-02-15T13:43:57.275Z,4.00
2023-02-15T13:46:31.632Z,4.00
2023-02-15T13:49:07.428Z,5.00
2023-02-15T13:51:38.006Z,5.00
2023-02-15T13:54:26.110Z,5.00
2023-02-15T13:56:58.915Z,4.00
2023-02-15T13:59:42.329Z,4.00
2023-02-15T14:02:35.234Z,5.00
2023-02-15T14:05:24.056Z,4.50
2023-02-15T14:07:58.803Z,4.00
2023-02-15T14:10:34.909Z,5.00
2023-02-15T14:13:50.451Z,5.00
2023-02-15T14:16:23.240Z,4.00
2023-02-15T14:18:53.364Z,4.25
2023-02-15T14:21:23.926Z,5.00
2023-02-15T14:23:59.535Z,4.75
2023-02-15T14:26:32.900Z,4.00
2023-02-15T14:29:04.851Z,4.25
2023-02-15T14:31:36.453Z,5.00
2023-02-15T14:34:05.359Z,5.00
2023-02-15T14:36:33.445Z,4.00
2023-02-15T14:39:31.296Z,5.00
2023-02-15T14:41:59.789Z,5.00
2023-02-15T14:44:31.193Z,3.75
2023-02-15T14:47:02.312Z,5.00
2023-02-15T14:49:32.953Z,5.00
2023-02-15T14:52:08.059Z,6.00
2023-02-15T14:55:00.961Z,5.00
2023-02-15T14:57:37.735Z,5.00
2023-02-15T15:00:41.506Z,5.00
2023-02-15T15:03:23.716Z,5.00
2023-02-15T15:05:53.433Z,5.00
2023-02-15T15:08:27.738Z,5.00
2023-02-15T15:10:56.614Z,4.00
2023-02-15T15:13:43.269Z,5.00
2023-02-15T15:16:51.742Z,4.75
2023-02-15T15:20:08.396Z,4.75
2023-02-15T15:22:38.387Z,5.00
2023-02-15T15:25:10.612Z,5.00
2023-02-15T15:27:46.495Z,5.00
2023-02-15T15:31:04.376Z,5.00
2023-02-15T15:34:04.317Z,4.00
2023-02-15T15:37:08.608Z,4.50
2023-02-15T15:40:15.235Z,4.00
2023-02-15T15:42:50.496Z,5.00
2023-02-15T15:45:54.671Z,4.00
2023-02-15T15:48:33.460Z,4.50
2023-02-15T15:51:02.893Z,5.00
2023-02-15T15:53:32.702Z,6.00
2023-02-15T15:56:03.544Z,6.00
2023-02-15T15:58:32.673Z,6.00
2023-02-15T16:01:01.833Z,5.50
2023-02-15T16:03:30.377Z,5.00
2023-02-15T16:06:01.412Z,5.50
2023-02-15T16:08:31.268Z,4.00
2023-02-15T16:10:59.214Z,5.00
2023-02-15T16:13:28.805Z,4.50
2023-02-15T16:15:57.390Z,6.00
2023-02-15T16:18:28.591Z,5.00
2023-02-15T16:20:57.362Z,5.00
2023-02-15T16:23:52.636Z,5.50
2023-02-15T16:26:25.300Z,5.00
2023-02-15T16:28:55.257Z,5.00
2023-02-15T16:31:24.404Z,4.75
2023-02-15T16:33:55.072Z,5.50
2023-02-15T16:36:23.999Z,6.50
2023-02-15T16:39:11.950Z,5.00
2023-02-15T16:41:40.314Z,6.00
2023-02-15T16:44:14.174Z,5.00
2023-02-15T16:46:42.764Z,5.00
2023-02-15T16:49:17.296Z,5.00
2023-02-15T16:51:45.762Z,5.00
2023-02-15T16:54:17.708Z,6.00
2023-02-15T16:56:47.322Z,6.00
2023-02-15T16:59:22.461Z,6.00
2023-02-15T17:01:50.394Z,6.00
2023-02-15T17:04:28.729Z,6.75
2023-02-15T17:07:05.930Z,6.00
2023-02-15T17:09:34.126Z,6.00
2023-02-15T17:12:03.213Z,7.00
2023-02-15T17:14:33.412Z,6.00
2023-02-15T17:17:03.378Z,6.00
2023-02-15T17:19:32.727Z,5.00
2023-02-15T17:22:02.284Z,6.00
2023-02-15T17:24:39.485Z,7.00
2023-02-15T17:27:12.946Z,7.00
2023-02-15T17:29:42.873Z,6.00
2023-02-15T17:32:17.414Z,6.00
2023-02-15T17:35:09.208Z,7.00
2023-02-15T17:37:47.567Z,7.00
2023-02-15T17:40:24.457Z,6.00
2023-02-15T17:42:52.452Z,7.00
2023-02-15T17:45:22.139Z,7.00
2023-02-15T17:47:50.529Z,7.00
2023-02-15T17:50:22.097Z,8.00
2023-02-15T17:52:50.349Z,7.00
2023-02-15T17:55:39.172Z,7.00
2023-02-15T17:58:08.599Z,6.50
2023-02-15T18:00:57.773Z,6.75
2023-02-15T18:03:43.611Z,7.25
2023-02-15T18:06:29.438Z,7.00
2023-02-15T18:09:15.080Z,7.00
2023-02-15T18:11:48.616Z,7.00
2023-02-15T18:14:16.517Z,7.75
2023-02-15T18:16:46.246Z,6.50
2023-02-15T18:19:18.830Z,7.00
2023-02-15T18:21:47.200Z,7.00
2023-02-15T18:24:19.150Z,8.00
2023-02-15T18:26:47.056Z,8.00
2023-02-15T18:29:15.040Z,7.00
2023-02-15T18:31:43.002Z,8.25
2023-02-15T18:34:20.250Z,7.00
2023-02-15T18:36:48.204Z,10.25
2023-02-15T18:39:27.051Z,8.75
2023-02-15T18:41:55.007Z,10.25
2023-02-15T18:44:22.925Z,8.50
2023-02-15T18:46:50.940Z,11.00
2023-02-15T18:49:20.412Z,10.50
2023-02-15T18:51:48.678Z,10.50
2023-02-15T18:54:20.753Z,10.00
2023-02-15T18:56:53.337Z,10.25
2023-02-15T18:59:22.076Z,11.00
2023-02-15T19:01:49.977Z,11.00
2023-02-15T19:04:18.356Z,10.00
2023-02-15T19:06:48.840Z,10.25
2023-02-15T19:09:18.243Z,10.25
2023-02-15T19:11:49.166Z,11.00
2023-02-15T19:14:24.359Z,11.00
2023-02-15T19:16:52.577Z,9.00
2023-02-15T19:19:20.596Z,12.75
2023-02-15T19:21:50.170Z,9.25
2023-02-15T19:24:19.767Z,10.00
2023-02-15T19:26:47.706Z,10.00
2023-02-15T19:29:16.852Z,10.50
2023-02-15T19:31:44.827Z,10.50
2023-02-15T19:34:14.752Z,10.00
2023-02-15T19:36:42.813Z,10.25
2023-02-15T19:39:21.584Z,10.00
2023-02-15T19:41:49.492Z,12.00
2023-02-15T19:44:17.718Z,11.50
2023-02-15T19:46:45.879Z,10.75
2023-02-15T19:49:13.807Z,12.75
2023-02-15T19:51:42.034Z,12.00
2023-02-15T19:54:22.537Z,13.50
2023-02-15T19:56:50.414Z,13.00
2023-02-15T19:59:23.661Z,12.75
2023-02-15T20:01:52.041Z,12.00
2023-02-15T20:04:20.054Z,12.75
2023-02-15T20:06:48.384Z,13.00
2023-02-15T20:09:20.198Z,14.00
2023-02-15T20:11:49.855Z,12.75
2023-02-15T20:14:17.702Z,14.00
2023-02-15T20:16:45.578Z,13.50
2023-02-15T20:19:14.159Z,15.25
2023-02-15T20:21:42.409Z,14.75
2023-02-15T20:24:13.235Z,13.50
2023-02-15T20:26:41.159Z,15.25
2023-02-15T20:29:13.386Z,14.75
2023-02-15T20:31:41.633Z,15.75
2023-02-15T20:34:09.593Z,14.00
2023-02-15T20:36:37.475Z,14.00
2023-02-15T20:39:09.573Z,13.75
2023-02-15T20:41:40.014Z,14.25
2023-02-15T20:44:18.811Z,14.00
2023-02-15T20:46:46.784Z,13.50
2023-02-15T20:49:14.814Z,14.00
2023-02-15T20:51:44.704Z,13.00
2023-02-15T20:54:14.694Z,13.00
2023-02-15T20:56:43.313Z,13.00
2023-02-15T20:59:26.498Z,13.00
2023-02-15T21:01:57.030Z,13.00
2023-02-15T21:04:27.699Z,13.50
2023-02-15T21:06:55.634Z,14.00
2023-02-15T21:09:23.525Z,15.50
2023-02-15T21:11:52.066Z,13.25
2023-02-15T21:14:20.691Z,13.25
2023-02-15T21:16:50.221Z,13.50
2023-02-15T21:19:18.967Z,16.00
2023-02-15T21:21:48.589Z,13.50
2023-02-15T21:24:16.965Z,14.50
2023-02-15T21:26:46.203Z,15.00
2023-02-15T21:29:18.191Z,16.00
2023-02-15T21:31:46.518Z,14.00
2023-02-15T21:34:15.967Z,14.00
2023-02-15T21:36:43.856Z,14.50
2023-02-15T21:39:18.735Z,13.25
2023-02-15T21:42:04.547Z,13.75
2023-02-15T21:44:50.205Z,14.00
2023-02-15T21:47:39.367Z,13.00
2023-02-15T21:50:27.809Z,13.75
2023-02-15T21:52:55.748Z,12.75
2023-02-15T21:55:26.381Z,13.00
2023-02-15T21:57:54.309Z,13.00
2023-02-15T22:00:23.324Z,13.75
2023-02-15T22:02:53.818Z,12.00
2023-02-15T22:05:24.497Z,13.00
2023-02-15T22:07:52.459Z,12.25
2023-02-15T22:10:22.704Z,12.50
2023-02-15T22:12:51.121Z,13.00
2023-02-15T22:15:20.401Z,13.00
2023-02-15T22:17:48.440Z,14.00
2023-02-15T22:20:17.521Z,14.00
2023-02-15T22:22:50.196Z,13.25
2023-02-15T22:25:19.389Z,14.00
2023-02-15T22:27:47.500Z,12.00
2023-02-15T22:30:21.483Z,11.50
2023-02-15T22:32:49.867Z,11.50
2023-02-15T22:35:18.423Z,13.00
2023-02-15T22:37:47.793Z,13.00
2023-02-15T22:40:16.794Z,12.75
2023-02-15T22:42:46.439Z,13.50
2023-02-15T22:45:17.539Z,15.00
2023-02-15T22:47:45.472Z,14.00
2023-02-15T22:50:20.135Z,14.00
2023-02-15T22:52:49.450Z,15.25
2023-02-15T22:55:17.568Z,14.00
2023-02-15T22:57:45.880Z,14.00
2023-02-15T23:00:16.960Z,14.25
2023-02-15T23:02:45.161Z,13.75
2023-02-15T23:05:23.427Z,13.25
2023-02-15T23:07:52.743Z,14.00
2023-02-15T23:10:24.724Z,15.25
2023-02-15T23:13:11.769Z,13.50
2023-02-15T23:15:39.820Z,13.75
2023-02-15T23:18:18.406Z,15.00
2023-02-15T23:20:46.750Z,13.00
2023-02-15T23:23:16.365Z,13.75
2023-02-15T23:25:44.256Z,13.00
2023-02-15T23:28:23.479Z,14.00
2023-02-15T23:30:51.497Z,13.25
2023-02-15T23:33:23.604Z,13.00
2023-02-15T23:35:51.581Z,15.00
2023-02-15T23:38:25.831Z,13.00
2023-02-15T23:41:16.063Z,13.00
2023-02-15T23:43:46.663Z,13.00
2023-02-15T23:46:34.969Z,12.25
2023-02-15T23:49:15.213Z,12.00
2023-02-15T23:51:44.296Z,13.00
2023-02-15T23:54:13.609Z,13.75
2023-02-15T23:56:41.697Z,12.00
2023-02-15T23:59:09.693Z,13.00
